Little America, WY

6:29 PM MDT on September 22, 2014 (GMT -0600)
Fort Bridger | Change Station
CLOSE
Current Station
Airport
Location: Fort Bridger AP, Fort Bridger,
Elevation: 7031 ft
Nearby Weather Stations

Elev 7031 ft 41.39 °N, 110.41 °W | Updated 14 minutes ago

Partly Cloudy
Partly Cloudy
66 °F
Feels Like 66 °F
N
14
Wind Variable Wind from West
Gusts 25 mph

Today
High -- | Low -- °F
--% Chance of Precip.
Yesterday
High -- | Low -- °F
Precip. -- in
7:06 AM 7:16 PM
Waning Crescent, 1% visible
Pressure 30.27 in
Visibility -9999.0 miles
Clouds Scattered Clouds 5000 ft
Scattered Clouds 7000 ft
Mostly Cloudy 8500 ft
Dew Point 42 °F
Humidity 42%
Rainfall 0.00 in
Snow Depth 1 in , 0 in , 0 in
UV 0 out of 12
Pollen 3.80 out of 12
Air Quality Not available.
Flu Activity Not available.
METAR KFBR 230015Z AUTO 28012G22KT SCT050 SCT070 BKN085 19/06 A3027 RMK AO2 T01870056 PWINO

More Conditions Fewer Conditions

Pressure 30.27 in
Visibility -9999.0 miles
Clouds Scattered Clouds 5000 ft
Scattered Clouds 7000 ft
Mostly Cloudy 8500 ft
Dew Point 42 °F
Humidity 42%
Rainfall 0.00 in
Snow Depth 1 in , 0 in , 0 in
UV 0 out of 12
Pollen 3.80 out of 12
Air Quality Not available.
Flu Activity Not available.
METAR KFBR 230015Z AUTO 28012G22KT SCT050 SCT070 BKN085 19/06 A3027 RMK AO2 T01870056 PWINO

More Conditions Fewer Conditions

10-Day Weather Forecast

Almanac

Astronomy

Sep. 22, 2014 Rise Set
Actual Time 7:06 AM MDT 7:16 PM MDT
Civil Twilight 6:39 AM MDT 7:44 PM MDT
Nautical Twilight 6:06 AM MDT 8:16 PM MDT
Astronomical Twilight 5:33 AM MDT 8:49 PM MDT
Moon 5:37 AM MDT (9/22) 6:26 PM MDT (9/22)
Length of Visible Light 13h 04m
Length of Day
12h 09m
Tomorrow will be 2m 46s shorter.
Waning Crescent, 1% of the Moon is Illuminated
Today
Waning Crescent
Sep 24
New
Oct 1
First Quarter
Oct 8
Full
Oct 15
Last Quarter

Today's Extremes

State Highs State Lows

Community

WunderPhotos

Upload Photos

1,755,574 photos uploaded!

Nearby

Snow Depth

Station Depth Elevation
Lewis Lake Divide 1 in 7850 ft
Salt River Summit 0 in 7600 ft
Reno Hill 0 in 8500 ft
Gros Ventre Summit 0 in 8750 ft
Casper Mountain 0 in 7850 ft

Earthquake Activity

City Distance Mag. Time & Date
No recent earthquake activity has been reported nearby.
Minimum magnitude displayed is 2.5.

Coastal Water Temperatures

Place Temperature
No Stations Reporting

Nearby Weather Stations